Terminal Aerodrome Forecast
Issued by NWS Sterling, VA

Current Version | Previous Version | Text Only | Print | Product List | Glossary Off
Versions: 1 2 3 4 5 6 7 8 9 10 11 12 13 14 15 16

599
FTUS41 KLWX 100520
TAFMRB
TAF
KMRB 100520Z 1006/1106 29010G17KT P6SM OVC050
     FM101000 27009KT P6SM BKN080
     FM101500 27013G21KT P6SM OVC040=

USA.gov is the U.S. government's official web portal to all federal, state and local government web resources and services.